Main page
METAR-TAF:

METAR-TAF

Airports :

Córdoba Airport

Córdoba, Spain

latitude: 37-51N, longitude: 004-51W, elevation: 90 m

Current weather observation

The report was made 17 minutes ago, at 19:30 UTC
Wind 6 kt from the West/Southwest
Temperature 35°C
Humidity 27%
Pressure 1009 hPa
Visibility 10 km or more
no clouds below 1500 m and no cumulonimbus

METAR: LEBA 281930Z AUTO 24006KT CAVOK 35/13 Q1009

Time: 21:47 (19:47 UTC)

Forecast

The report was made 5 hours and 47 minutes ago, at 14:00 UTC
Forecast valid from 28 at 15 UTC to 29 at 15 UTC
Wind 7 kt from the West/Southwest
Visibility 10 km or more
no clouds below 1500 m and no cumulonimbus
Temporary
from 28 at 20 UTC to 29 at 01 UTC
Wind 10 kt from the South

TAF: LEBA 281400Z 2815/2915 25007KT CAVOK TX39/2816Z TN22/2905Z TEMPO 2820/2901 19010KT

Weather observations and forecasts of more than 4000 airports (METAR and TAF reports).

The available stations are represented by yellow and red dots on the map.

Hover mouse over dot to see the name of the station.

Then click to see weather observations and forecasts.

To change the map : click on the green buttons with a black cross to zoom in, on the green button with a dash to zoom out, or on the green arrows for adjacent maps.


METAR-TAF: